Aurora, CO (80042)

1:55 PM MDT on September 18, 2014 (GMT -0600)
North Aurora / Fitzsimmons | Change Station
CLOSE
Current Station
Personal Weather Station
Location: Aurora, CO
Elevation: 5364 ft
Nearby Weather Stations

Elev 5364 ft 39.75 °N, 104.85 °W | Updated 11 seconds ago

Partly Cloudy
Partly Cloudy
90.7 °F
Feels Like 87 °F
N
0.0
Wind Variable Wind from North
Gusts 0.0 mph

Today
High -- | Low -- °F
--% Chance of Precip.
Yesterday
High -- | Low -- °F
Precip. -- in
6:43 AM 7:02 PM
Waning Crescent, 25% visible
Pressure 29.82 in
Visibility 10.0 miles
Clouds Few 11000 ft
Scattered Clouds 22000 ft
Heat Index 87 °F
Dew Point 41 °F
Humidity 18%
Rainfall 0.00 in
Snow Depth 0 in , 0 in , 87 in
UV 7 out of 12
Pollen 7.70 out of 12
Ozone Good
PM2.5 Good
Flu Activity Not available.
METAR KBKF 181858Z VRB04KT 10SM FEW110 SCT220 29/04 A3005 RMK AO2A SLP096 T02900040

More Conditions Fewer Conditions

Pressure 29.82 in
Visibility 10.0 miles
Clouds Few 11000 ft
Scattered Clouds 22000 ft
Heat Index 87 °F
Dew Point 41 °F
Humidity 18%
Rainfall 0.00 in
Snow Depth 0 in , 0 in , 87 in
UV 7 out of 12
Pollen 7.70 out of 12
Ozone Good
PM2.5 Good
Flu Activity Not available.
METAR KBKF 181858Z VRB04KT 10SM FEW110 SCT220 29/04 A3005 RMK AO2A SLP096 T02900040

More Conditions Fewer Conditions

10-Day Weather Forecast

Almanac

Astronomy

Sep. 18, 2014 Rise Set
Actual Time 6:43 AM MDT 7:02 PM MDT
Civil Twilight 6:16 AM MDT 7:29 PM MDT
Nautical Twilight 5:44 AM MDT 8:01 PM MDT
Astronomical Twilight 5:12 AM MDT 8:33 PM MDT
Moon 1:37 AM MDT 3:55 PM MDT
Length of Visible Light 13h 13m
Length of Day
12h 19m
Tomorrow will be 2m 35s shorter.
Waning Crescent, 25% of the Moon is Illuminated
Today
Waning Crescent
Sep 24
New
Oct 1
First Quarter
Oct 8
Full
Oct 15
Last Quarter

Today's Extremes

State Highs State Lows

Community

WunderPhotos

Upload Photos

1,754,421 photos uploaded!

WunderBlogs® & News

By Dr. Jeff Masters
Director of Meteorology, Weather Underground
By Kari Strenfel
Meteorologist, Weather Underground
By Christopher C. Burt
Weather Historian, Weather Underground
September 18, 2014
September 18, 2014
September 18, 2014

Nearby

Air Quality

  Air Quality AQ Index Pollutant
Yesterday Good
OZONE
Yesterday Good
PM10
Current Good
OZONE
Current Good
PM2.5
Thursday Good
OZONE
Thursday Good
PM2.5

Snow Depth

Station Depth Elevation
Apishapa 0 in 10000 ft
Hoosier Pass 0 in 11400 ft
Vail Mountain 87 in 10300 ft
Columbine Pass 0 in 9400 ft
Rawah 6 in 9020 ft

Earthquake Activity

City Distance Mag. Time & Date
No recent earthquake activity has been reported nearby.
Minimum magnitude displayed is 2.5.

Coastal Water Temperatures

Place Temperature
No Stations Reporting

Nearby Weather Stations